Snow Lake, Arkansas
Current Conditions -  °F | °C
As of 2:35 AM on Sunday 26 Oct 2014 (Local Time) from KRNV Reporting Station
Clear Clear  
Wind Chill: 63°   Ceiling: Unl
Heat Index: 63°   Visibility: 7mi
Dew Point: 63°   Wind: 5mph
Humidity: 100%   Direction: 200°SSW
Pressure: 30.02"   Gusts: NA
Location:  34.06°N, 91.02°W
Report Text: KRNV 260735Z AUTO 20004KT 7SM CLR 17/17 A3002 RMK AO2 T01700170
Loading
Personal Weather Stations






























Interactive Weather Map
Tropical Storm Tracking
New forecast layout! Learn more

10-Day Weather Forecast

Advertisements
Track Severe Weather on mobile